Taree, New South Wales

2:04 AM AEDT on February 10, 2016 (GMT +1100)
Taree | | Change Station
CLOSE
Current Station
Airport
Location: Taree,
Elevation: 39 ft
Nearby Weather Stations

Elev 39 ft 31.89 °S, 152.51 °E | Updated 1 hour ago

Mostly Cloudy
Mostly Cloudy
68 °F
Feels Like 68 °F
N
0
Wind Variable Wind from North

Today
High -- | Low -- °F
--% Chance of Precip.
Yesterday
High -- | Low -- °F
Precip. -- in
Pressure 30.04 in
Visibility 6.2 miles
Clouds Scattered Clouds 3500 ft
Mostly Cloudy 4000 ft
Mostly Cloudy 5600 ft
Dew Point 64 °F
Humidity 88%
Rainfall 0.00 in
Snow Depth Not available.
6:22 AM 7:45 PM
New Moon, 1% visible
METAR YTRE 091400Z AUTO 00000KT 9999 // SCT035 BKN040 BKN056 20/18 Q1017
Pressure 30.04 in
Visibility 6.2 miles
Clouds Scattered Clouds 3500 ft
Mostly Cloudy 4000 ft
Mostly Cloudy 5600 ft
Dew Point 64 °F
Humidity 88%
Rainfall 0.00 in
Snow Depth Not available.
6:22 AM 7:45 PM
New Moon, 1% visible
METAR YTRE 091400Z AUTO 00000KT 9999 // SCT035 BKN040 BKN056 20/18 Q1017

10-Day Weather Forecast

Almanac

Astronomy

Feb. 10, 2016 Rise Set
Actual Time
Civil Twilight
Nautical Twilight
Astronomical Twilight
Moon
Length of Visible Light
Length of Day
Tomorrow will be .
, % of the Moon is Illuminated

Today's Extremes

Country Highs Country Lows

Community

WunderPhotos

Upload Photos

1,891,616 photos uploaded!

WunderBlog® & News

Nearby

Air Quality

  Air Quality AQ Index Pollutant
Not available.

Snow Depth

Station Depth Elevation

Earthquake Activity

City Distance Mag. Time & Date
Minimum magnitude displayed is 2.5.

Coastal Water Temperatures

Place Temperature

Stations

Nearby Weather Stations

Station Location Temp. Windchill Dew Point Humidity Wind Precip. Elev Updated Type